Time;durP1;ratioP1;P1;durP2;ratioP2;P2;SDS_P1;SDS_P2;PMS_P1;PMS_P2;Temp;Humidity;BMP_temperature;BMP_pressure;BME280_temperature;BME280_humidity;BME280_pressure;Samples;Min_cycle;Max_cycle;Signal;HPM_P1;HPM_P2
2023/06/29 00:01:02;;;;;;;68.45;52.47;;;18.70;99.90;;;;;;5053434;28;20395;-90
2023/06/29 00:03:29;;;;;;;71.82;55.05;;;18.70;99.90;;;;;;5052690;28;20408;-89
2023/06/29 00:05:58;;;;;;;65.73;52.37;;;18.90;99.90;;;;;;5052583;28;20474;-91
2023/06/29 00:08:34;;;;;;;77.77;55.87;;;18.70;99.90;;;;;;5053432;28;20414;-91
2023/06/29 00:10:59;;;;;;;64.63;50.10;;;18.70;99.90;;;;;;5052497;28;20440;-91
2023/06/29 00:13:25;;;;;;;73.80;54.30;;;18.90;99.90;;;;;;5069442;28;20461;-91
2023/06/29 00:15:51;;;;;;;82.95;57.83;;;18.90;99.90;;;;;;5069443;28;20398;-91
2023/06/29 00:18:18;;;;;;;66.03;52.17;;;18.70;99.90;;;;;;5053820;28;20887;-92
2023/06/29 00:20:44;;;;;;;64.30;49.42;;;18.90;99.90;;;;;;5086928;28;20398;-91
2023/06/29 00:23:10;;;;;;;65.00;49.28;;;18.70;99.90;;;;;;5053631;28;20402;-91
2023/06/29 00:25:38;;;;;;;66.40;51.97;;;18.80;99.90;;;;;;5070337;28;20432;-90
2023/06/29 00:28:04;;;;;;;67.07;50.22;;;18.60;99.90;;;;;;5053549;28;20498;-91
2023/06/29 00:30:30;;;;;;;64.80;49.95;;;18.80;99.90;;;;;;5070411;28;20489;-91
2023/06/29 00:32:56;;;;;;;70.03;53.03;;;18.80;99.90;;;;;;5069603;28;20402;-91
2023/06/29 00:35:21;;;;;;;63.50;50.40;;;19.00;99.90;;;;;;5070267;28;20398;-89
2023/06/29 00:37:47;;;;;;;74.53;54.65;;;18.80;99.90;;;;;;5053201;28;20410;-90
2023/06/29 00:40:13;;;;;;;72.27;53.07;;;18.70;99.90;;;;;;5052972;28;20406;-92
2023/06/29 00:42:38;;;;;;;65.95;49.45;;;18.80;99.90;;;;;;5070071;28;20451;-89
2023/06/29 00:45:05;;;;;;;72.60;52.73;;;18.90;99.90;;;;;;5069896;28;20794;-91
2023/06/29 00:47:32;;;;;;;59.17;47.97;;;18.80;99.90;;;;;;5053117;28;20398;-92
2023/06/29 00:49:59;;;;;;;70.45;52.35;;;19.00;99.90;;;;;;5053168;28;20957;-92
2023/06/29 00:52:25;;;;;;;70.90;52.58;;;18.70;99.90;;;;;;5053488;28;20497;-91
2023/06/29 00:54:53;;;;;;;69.78;53.22;;;18.80;99.90;;;;;;5052734;28;20869;-92
2023/06/29 00:57:19;;;;;;;77.30;55.45;;;18.70;99.90;;;;;;5053764;28;20414;-92
2023/06/29 00:59:46;;;;;;;81.90;56.55;;;18.60;99.90;;;;;;5069860;28;20405;-91
2023/06/29 01:02:14;;;;;;;75.90;55.13;;;18.80;99.90;;;;;;5053376;28;20489;-91
2023/06/29 01:04:40;;;;;;;77.00;55.40;;;18.80;99.90;;;;;;5052878;28;20493;-91
2023/06/29 01:07:28;;;;;;;93.13;61.38;;;18.80;99.90;;;;;;5069779;28;20402;-91
2023/06/29 01:09:55;;;;;;;76.57;56.57;;;19.00;99.90;;;;;;5052648;28;20433;-90
2023/06/29 01:12:22;;;;;;;74.10;55.47;;;18.70;99.90;;;;;;5051959;28;20406;-91
2023/06/29 01:14:49;;;;;;;75.43;55.42;;;18.80;99.90;;;;;;5051485;28;20432;-90
2023/06/29 01:17:20;;;;;;;73.47;54.90;;;18.80;99.90;;;;;;5051908;28;20405;-91
2023/06/29 01:19:48;;;;;;;70.82;54.03;;;19.00;99.90;;;;;;5052113;28;20486;-91
2023/06/29 01:22:36;;;;;;;74.15;55.22;;;18.80;99.90;;;;;;5054938;28;20458;-91
2023/06/29 01:25:02;;;;;;;95.65;62.50;;;18.80;99.90;;;;;;5056579;28;20481;-91
2023/06/29 01:27:28;;;;;;;76.05;55.13;;;18.80;99.90;;;;;;5073435;28;20406;-91
2023/06/29 01:29:55;;;;;;;71.95;53.60;;;19.10;99.90;;;;;;5056792;28;20485;-91
2023/06/29 01:32:33;;;;;;;74.88;55.08;;;18.80;99.90;;;;;;5090271;28;20496;-91
2023/06/29 01:35:00;;;;;;;73.82;54.38;;;18.80;99.90;;;;;;5073457;28;20425;-91
2023/06/29 01:37:36;;;;;;;78.68;55.85;;;18.80;99.90;;;;;;5056919;28;20402;-92
2023/06/29 01:40:08;;;;;;;68.82;54.00;;;18.70;99.90;;;;;;5056696;28;20409;-90
2023/06/29 01:42:35;;;;;;;68.15;54.15;;;18.80;99.90;;;;;;5056860;28;20494;-91
2023/06/29 01:45:03;;;;;;;70.55;53.65;;;18.80;99.90;;;;;;5056417;28;20434;-92
2023/06/29 01:47:30;;;;;;;72.18;55.13;;;18.80;99.90;;;;;;5073414;28;20406;-91
2023/06/29 01:49:55;;;;;;;66.87;53.03;;;18.90;99.90;;;;;;5056063;28;20405;-91
2023/06/29 01:52:21;;;;;;;72.82;54.70;;;18.80;99.90;;;;;;5056763;28;20394;-92
2023/06/29 01:54:47;;;;;;;75.70;56.28;;;18.70;99.90;;;;;;5055971;28;20428;-91
2023/06/29 01:57:13;;;;;;;73.47;55.50;;;18.80;99.90;;;;;;5056575;28;20495;-92
2023/06/29 01:59:39;;;;;;;71.55;54.60;;;18.70;99.90;;;;;;5055906;28;20851;-90
2023/06/29 02:02:05;;;;;;;78.50;57.70;;;18.70;99.90;;;;;;5072630;28;20437;-91
2023/06/29 02:04:32;;;;;;;78.00;58.03;;;18.60;99.90;;;;;;5055906;28;20842;-92
2023/06/29 02:06:57;;;;;;;74.78;56.35;;;18.90;99.90;;;;;;5056048;28;20405;-91
2023/06/29 02:09:23;;;;;;;69.97;54.50;;;18.80;99.90;;;;;;5073126;28;20833;-91
2023/06/29 02:11:48;;;;;;;91.93;60.73;;;18.90;99.90;;;;;;5056118;28;20492;-92
2023/06/29 02:14:17;;;;;;;69.80;53.22;;;18.70;99.90;;;;;;5072637;28;20421;-92
2023/06/29 02:16:43;;;;;;;73.70;56.60;;;18.90;99.90;;;;;;5055968;28;20390;-91
2023/06/29 02:19:09;;;;;;;75.60;58.72;;;18.70;99.90;;;;;;5055653;28;20413;-91
2023/06/29 02:21:35;;;;;;;71.22;56.55;;;18.70;99.90;;;;;;5072520;28;20410;-89
2023/06/29 02:24:00;;;;;;;67.37;54.17;;;18.70;99.90;;;;;;5072449;28;20452;-91
2023/06/29 02:26:26;;;;;;;73.97;57.03;;;18.70;99.90;;;;;;5056118;28;20507;-91
2023/06/29 02:28:52;;;;;;;76.17;57.97;;;18.60;99.90;;;;;;5089524;28;21178;-91
2023/06/29 02:31:17;;;;;;;73.97;57.40;;;18.80;99.90;;;;;;5072287;28;20894;-93
2023/06/29 02:33:44;;;;;;;70.60;55.10;;;19.00;99.90;;;;;;5071601;28;20509;-91
2023/06/29 02:36:10;;;;;;;74.05;56.47;;;18.70;99.90;;;;;;5072285;28;20394;-91
2023/06/29 02:38:36;;;;;;;75.38;59.08;;;18.60;99.90;;;;;;5072096;28;20401;-92
2023/06/29 02:41:01;;;;;;;72.93;56.43;;;18.70;99.90;;;;;;5055533;28;20417;-91
2023/06/29 02:43:27;;;;;;;69.18;55.33;;;18.70;99.90;;;;;;5072200;28;20402;-92
2023/06/29 02:45:53;;;;;;;81.33;59.87;;;18.70;99.90;;;;;;5071731;28;20790;-93
2023/06/29 02:48:18;;;;;;;75.10;56.72;;;18.90;99.90;;;;;;5072102;28;20394;-92
2023/06/29 02:50:44;;;;;;;77.13;56.27;;;18.80;99.90;;;;;;5055477;28;20448;-91
2023/06/29 02:53:14;;;;;;;75.43;56.30;;;18.70;99.90;;;;;;5071835;28;20422;-91
2023/06/29 02:55:40;;;;;;;75.15;55.58;;;18.70;99.90;;;;;;5072073;28;20475;-91
2023/06/29 02:58:05;;;;;;;69.33;54.03;;;18.70;99.90;;;;;;5072272;28;20906;-91
2023/06/29 03:00:31;;;;;;;71.90;56.22;;;18.70;99.90;;;;;;5055275;28;20441;-91
2023/06/29 03:02:57;;;;;;;76.23;56.40;;;18.90;99.90;;;;;;5054657;28;20398;-90
2023/06/29 03:05:22;;;;;;;76.22;56.00;;;19.00;99.90;;;;;;5055371;28;20412;-91
2023/06/29 03:07:48;;;;;;;64.13;50.93;;;18.40;99.90;;;;;;5054732;28;20444;-92
2023/06/29 03:10:14;;;;;;;68.20;52.90;;;18.60;99.90;;;;;;5071600;28;20406;-91
2023/06/29 03:12:41;;;;;;;72.23;53.77;;;18.60;99.90;;;;;;5071457;28;20401;-91
2023/06/29 03:15:07;;;;;;;64.82;49.83;;;18.60;99.90;;;;;;5054766;28;20433;-92
2023/06/29 03:17:33;;;;;;;67.18;50.78;;;18.60;99.90;;;;;;5054506;28;20410;-91
2023/06/29 03:19:58;;;;;;;62.45;49.75;;;18.70;99.90;;;;;;5054649;28;20480;-93
2023/06/29 03:22:26;;;;;;;60.63;47.75;;;18.70;99.90;;;;;;5054719;28;20480;-91
2023/06/29 03:24:52;;;;;;;63.30;49.50;;;18.50;99.90;;;;;;5054740;28;20402;-92
2023/06/29 03:27:18;;;;;;;61.55;48.75;;;18.70;99.90;;;;;;5071368;28;20402;-92
2023/06/29 03:29:44;;;;;;;62.30;48.72;;;18.70;99.90;;;;;;5071200;28;20932;-92
2023/06/29 03:32:10;;;;;;;60.33;47.60;;;18.70;99.90;;;;;;5071637;28;20410;-92
2023/06/29 03:34:36;;;;;;;63.03;47.33;;;18.70;99.90;;;;;;5070448;28;20522;-92
2023/06/29 03:37:01;;;;;;;57.88;45.78;;;18.70;99.90;;;;;;5070972;28;20409;-92
2023/06/29 03:39:29;;;;;;;59.95;46.53;;;18.70;99.90;;;;;;5070130;28;20569;-91
2023/06/29 03:41:55;;;;;;;61.35;46.63;;;18.70;99.90;;;;;;5071120;28;20816;-92
2023/06/29 03:44:20;;;;;;;60.20;45.33;;;18.70;99.90;;;;;;5070342;28;20402;-92
2023/06/29 03:46:47;;;;;;;64.13;47.35;;;18.70;99.90;;;;;;5070981;28;20398;-91
2023/06/29 03:49:13;;;;;;;62.45;46.75;;;18.70;99.90;;;;;;5054403;28;20382;-92
2023/06/29 03:51:39;;;;;;;61.50;45.47;;;18.70;99.90;;;;;;5070866;28;20937;-90
2023/06/29 03:54:04;;;;;;;61.17;43.53;;;18.70;99.90;;;;;;5070568;28;20458;-91
2023/06/29 03:56:31;;;;;;;53.70;43.03;;;18.80;99.90;;;;;;5070532;28;20438;-91
2023/06/29 03:58:57;;;;;;;57.33;43.43;;;18.80;99.90;;;;;;5053838;28;20398;-92
2023/06/29 04:01:22;;;;;;;56.53;43.78;;;18.80;99.90;;;;;;5053898;28;20404;-91
2023/06/29 04:03:48;;;;;;;55.80;43.17;;;19.00;99.90;;;;;;5070374;28;20533;-91
2023/06/29 04:06:13;;;;;;;59.93;44.67;;;18.90;99.90;;;;;;5070541;28;20406;-91
2023/06/29 04:08:39;;;;;;;71.82;46.42;;;18.90;99.90;;;;;;5070577;28;20437;-92
2023/06/29 04:11:05;;;;;;;54.00;41.43;;;18.90;99.90;;;;;;5054146;28;20924;-91
2023/06/29 04:13:30;;;;;;;50.83;40.13;;;19.00;99.90;;;;;;5070111;28;20433;-91
2023/06/29 04:15:56;;;;;;;49.25;39.58;;;19.30;99.90;;;;;;5070347;28;20769;-91
2023/06/29 04:18:22;;;;;;;50.73;40.93;;;19.00;99.90;;;;;;5070907;28;21144;-92
2023/06/29 04:20:48;;;;;;;46.30;38.70;;;19.10;99.90;;;;;;5070167;28;20487;-93
2023/06/29 04:23:15;;;;;;;52.60;40.10;;;19.10;99.90;;;;;;5053588;28;20437;-92
2023/06/29 04:25:43;;;;;;;56.30;42.33;;;19.20;99.90;;;;;;5087001;28;20394;-92
2023/06/29 04:28:11;;;;;;;53.05;40.42;;;19.20;99.90;;;;;;5070272;28;20428;-89
2023/06/29 04:30:39;;;;;;;44.53;36.22;;;19.20;99.90;;;;;;5053708;28;20413;-91
2023/06/29 04:33:09;;;;;;;48.58;38.17;;;19.30;99.90;;;;;;5069836;28;20406;-92
2023/06/29 04:35:39;;;;;;;43.53;36.10;;;19.60;99.90;;;;;;5053993;28;20452;-92
2023/06/29 04:38:05;;;;;;;44.30;35.25;;;19.60;99.90;;;;;;5053199;28;20425;-92
2023/06/29 04:40:31;;;;;;;41.30;34.10;;;19.40;99.90;;;;;;5053294;28;20902;-92
2023/06/29 04:42:57;;;;;;;47.93;36.90;;;19.50;99.90;;;;;;5069764;28;20406;-92
2023/06/29 04:45:24;;;;;;;44.80;36.05;;;19.70;99.90;;;;;;5053274;28;20936;-92
2023/06/29 04:47:50;;;;;;;47.65;37.80;;;19.40;99.90;;;;;;5053350;28;20417;-93
2023/06/29 04:50:16;;;;;;;44.53;36.03;;;19.40;99.90;;;;;;5053182;28;20485;-93
2023/06/29 04:52:43;;;;;;;44.60;35.65;;;19.40;99.90;;;;;;5053229;28;20394;-93
2023/06/29 04:55:10;;;;;;;39.28;33.53;;;19.40;99.90;;;;;;5069575;28;20479;-93
2023/06/29 04:57:36;;;;;;;42.30;35.53;;;19.70;99.90;;;;;;5068720;28;20458;-91
2023/06/29 05:00:07;;;;;;;39.60;33.70;;;19.40;99.90;;;;;;5051678;28;20406;-93
2023/06/29 05:02:32;;;;;;;40.55;34.10;;;19.50;99.90;;;;;;5053173;28;20417;-91
2023/06/29 05:04:58;;;;;;;37.65;32.33;;;19.80;99.90;;;;;;5069386;28;20402;-92
2023/06/29 05:07:24;;;;;;;37.60;31.83;;;19.40;99.90;;;;;;5070253;28;20398;-93
2023/06/29 05:09:49;;;;;;;42.53;33.80;;;19.50;99.90;;;;;;5069888;28;20401;-92
2023/06/29 05:12:16;;;;;;;39.63;32.47;;;19.50;99.90;;;;;;5069388;28;20398;-92
2023/06/29 05:14:41;;;;;;;40.22;32.35;;;19.80;99.90;;;;;;5052116;28;20430;-91
2023/06/29 05:17:07;;;;;;;42.20;34.08;;;19.50;99.90;;;;;;5069801;28;20401;-92
2023/06/29 05:19:34;;;;;;;38.50;32.63;;;19.50;99.90;;;;;;5053314;28;20402;-92
2023/06/29 05:22:00;;;;;;;41.03;33.28;;;19.70;99.90;;;;;;5052692;28;20413;-91
2023/06/29 05:24:28;;;;;;;39.83;33.55;;;19.60;99.90;;;;;;5053174;28;20762;-91
2023/06/29 05:26:54;;;;;;;38.22;31.88;;;19.60;99.90;;;;;;5052152;28;20810;-92
2023/06/29 05:29:20;;;;;;;36.83;31.08;;;19.80;99.90;;;;;;5051864;28;20397;-92
2023/06/29 05:31:45;;;;;;;36.70;31.50;;;19.60;99.90;;;;;;5052973;28;20415;-92
2023/06/29 05:34:11;;;;;;;39.72;32.92;;;19.70;99.90;;;;;;5048766;28;20421;-91
2023/06/29 05:36:37;;;;;;;38.67;31.77;;;19.80;99.90;;;;;;5049384;28;20415;-91
2023/06/29 05:39:04;;;;;;;34.67;30.45;;;19.60;99.90;;;;;;5049448;28;20408;-92
2023/06/29 05:41:29;;;;;;;36.20;30.75;;;19.60;99.90;;;;;;5049449;28;20404;-92
2023/06/29 05:43:55;;;;;;;36.90;30.40;;;19.60;99.90;;;;;;5066032;28;20400;-92
2023/06/29 05:46:21;;;;;;;35.40;30.40;;;19.50;99.90;;;;;;5066201;28;20411;-92
2023/06/29 05:48:47;;;;;;;38.33;32.50;;;19.70;99.90;;;;;;5065797;28;20408;-93
2023/06/29 05:51:12;;;;;;;38.20;31.10;;;19.70;99.90;;;;;;5049234;28;20456;-91
2023/06/29 05:53:38;;;;;;;35.47;29.60;;;19.80;99.90;;;;;;5049253;28;20463;-92
2023/06/29 05:56:04;;;;;;;34.38;29.15;;;19.80;99.90;;;;;;5065819;28;20503;-90
2023/06/29 05:58:29;;;;;;;34.97;29.57;;;20.20;99.90;;;;;;5049142;28;20407;-92
2023/06/29 06:00:55;;;;;;;36.67;29.02;;;19.90;99.90;;;;;;5055756;28;20476;-93
2023/06/29 06:03:22;;;;;;;33.93;29.07;;;20.00;99.90;;;;;;5033074;28;20404;-92
2023/06/29 06:05:48;;;;;;;34.63;28.70;;;20.00;99.90;;;;;;5048922;28;20441;-92
2023/06/29 06:08:13;;;;;;;33.70;28.83;;;20.10;99.90;;;;;;5051012;28;20408;-92
2023/06/29 06:10:39;;;;;;;32.53;27.65;;;20.40;99.90;;;;;;5052971;28;20446;-91
2023/06/29 06:13:05;;;;;;;33.67;28.25;;;20.30;99.90;;;;;;5069038;28;20419;-93
2023/06/29 06:15:31;;;;;;;31.27;27.40;;;20.50;99.90;;;;;;5052767;28;20888;-92
2023/06/29 06:17:56;;;;;;;33.42;27.80;;;20.30;99.90;;;;;;5052337;28;20435;-92
2023/06/29 06:20:22;;;;;;;31.77;26.43;;;20.40;99.90;;;;;;5068580;28;20772;-92
2023/06/29 06:22:48;;;;;;;30.60;26.63;;;20.40;99.90;;;;;;5051864;28;20415;-93
2023/06/29 06:25:17;;;;;;;31.27;26.67;;;20.60;99.90;;;;;;5052198;28;20954;-92
2023/06/29 06:27:43;;;;;;;32.55;27.35;;;20.50;99.90;;;;;;5052676;28;20420;-93
2023/06/29 06:30:09;;;;;;;33.17;28.15;;;20.50;99.90;;;;;;5052539;28;20816;-93
2023/06/29 06:32:36;;;;;;;31.00;26.73;;;20.40;99.90;;;;;;5052783;28;20404;-92
2023/06/29 06:35:04;;;;;;;33.70;29.02;;;20.60;99.90;;;;;;5072203;28;20911;-92
2023/06/29 06:37:30;;;;;;;36.15;28.48;;;20.50;99.90;;;;;;5055868;28;20402;-93
2023/06/29 06:39:55;;;;;;;35.90;28.43;;;20.70;99.90;;;;;;5055130;28;20421;-92
2023/06/29 06:42:21;;;;;;;34.97;28.90;;;20.50;99.90;;;;;;5072522;28;20434;-93
2023/06/29 06:44:55;;;;;;;36.93;29.53;;;20.40;99.90;;;;;;5055815;28;20414;-92
2023/06/29 06:47:21;;;;;;;34.70;27.90;;;20.60;99.90;;;;;;5055199;28;20402;-93
2023/06/29 06:49:47;;;;;;;34.60;29.20;;;20.70;99.90;;;;;;5055123;28;20424;-93
2023/06/29 06:52:13;;;;;;;34.83;28.57;;;20.40;99.90;;;;;;5055097;28;20516;-93
2023/06/29 06:54:39;;;;;;;33.58;26.65;;;20.50;99.90;;;;;;5055128;28;20513;-92
2023/06/29 06:57:05;;;;;;;36.20;28.02;;;20.60;99.90;;;;;;5055265;28;20481;-93
2023/06/29 06:59:30;;;;;;;34.87;27.47;;;20.60;99.90;;;;;;5055636;28;20894;-92
2023/06/29 07:01:56;;;;;;;36.53;29.15;;;20.60;99.90;;;;;;5055322;28;20444;-92
2023/06/29 07:04:21;;;;;;;35.57;28.87;;;20.70;99.90;;;;;;5071313;28;20860;-93
2023/06/29 07:06:47;;;;;;;33.58;28.00;;;20.70;99.90;;;;;;5055152;28;20427;-92
2023/06/29 07:09:13;;;;;;;34.47;28.27;;;20.80;99.90;;;;;;5055321;28;20442;-92
2023/06/29 07:11:40;;;;;;;35.28;29.02;;;20.80;99.90;;;;;;5055314;28;20419;-92
2023/06/29 07:14:05;;;;;;;35.08;28.10;;;21.10;99.90;;;;;;5054863;28;20545;-94
2023/06/29 07:16:35;;;;;;;35.50;28.83;;;21.00;99.90;;;;;;5048393;28;20532;-93
2023/06/29 07:19:08;;;;;;;35.05;29.00;;;21.00;99.90;;;;;;5064091;28;20444;-92
2023/06/29 07:21:34;;;;;;;36.20;29.02;;;21.10;99.90;;;;;;5049360;28;20831;-93
2023/06/29 07:24:12;;;;;;;34.90;29.10;;;21.10;99.90;;;;;;5068388;28;20407;-92
2023/06/29 07:26:38;;;;;;;34.85;29.60;;;21.10;99.90;;;;;;5050142;28;20402;-92
2023/06/29 07:29:05;;;;;;;38.42;30.15;;;21.20;99.90;;;;;;5066287;28;20408;-93
2023/06/29 07:31:35;;;;;;;37.75;30.55;;;21.20;99.90;;;;;;5067656;28;20752;-91
2023/06/29 07:34:01;;;;;;;35.67;28.77;;;21.30;99.90;;;;;;5049346;28;20507;-92
2023/06/29 07:36:29;;;;;;;39.90;30.30;;;21.40;99.90;;;;;;5050909;28;20486;-92
2023/06/29 07:38:56;;;;;;;38.75;30.00;;;21.40;99.90;;;;;;5051058;28;20460;-92
2023/06/29 07:41:22;;;;;;;38.25;29.08;;;21.50;99.90;;;;;;5046343;28;20495;-92
2023/06/29 07:43:52;;;;;;;36.22;29.40;;;21.60;99.90;;;;;;5050498;28;20483;-93
2023/06/29 07:46:22;;;;;;;36.85;29.83;;;21.70;99.90;;;;;;5050503;28;20454;-93
2023/06/29 07:48:50;;;;;;;37.37;29.20;;;21.80;99.90;;;;;;5049486;28;20466;-92
2023/06/29 07:51:16;;;;;;;37.72;29.98;;;21.80;99.90;;;;;;5050202;28;20824;-92
2023/06/29 07:53:43;;;;;;;34.83;28.60;;;21.90;99.90;;;;;;5049446;28;20792;-92
2023/06/29 07:56:09;;;;;;;33.50;28.45;;;22.10;99.90;;;;;;5049905;28;20426;-92
2023/06/29 07:58:38;;;;;;;33.72;29.48;;;22.30;99.90;;;;;;5049126;28;21219;-92
2023/06/29 08:01:03;;;;;;;33.90;27.83;;;22.60;99.90;;;;;;5039628;28;20406;-91
2023/06/29 08:03:29;;;;;;;34.65;29.08;;;22.80;99.90;;;;;;5053314;28;21092;-91
2023/06/29 08:05:55;;;;;;;34.20;28.13;;;22.90;99.90;;;;;;5053349;28;20411;-90
2023/06/29 08:08:21;;;;;;;34.22;28.65;;;23.10;99.90;;;;;;5053340;28;20467;-92
2023/06/29 08:10:50;;;;;;;32.85;28.10;;;23.10;99.90;;;;;;5052735;28;21021;-91
2023/06/29 08:13:16;;;;;;;32.75;28.85;;;23.00;99.90;;;;;;5068332;28;20434;-91
2023/06/29 08:15:42;;;;;;;34.65;30.20;;;22.90;99.90;;;;;;5067799;28;20398;-90
2023/06/29 08:18:07;;;;;;;37.45;31.10;;;23.10;99.90;;;;;;5068816;28;20405;-88
2023/06/29 08:20:33;;;;;;;37.83;30.97;;;22.80;99.90;;;;;;5051141;28;20410;-88
2023/06/29 08:22:59;;;;;;;39.22;31.23;;;22.80;99.90;;;;;;5067611;28;20478;-87
2023/06/29 08:25:25;;;;;;;37.57;32.60;;;22.60;99.90;;;;;;5065683;28;20415;-89
2023/06/29 08:27:51;;;;;;;37.35;31.60;;;22.50;99.90;;;;;;5067404;28;20390;-89
2023/06/29 08:30:16;;;;;;;36.78;32.28;;;22.70;99.90;;;;;;5067447;28;20410;-89
2023/06/29 08:32:43;;;;;;;38.43;31.83;;;22.40;99.90;;;;;;5067212;28;20887;-88
2023/06/29 08:35:09;;;;;;;38.03;32.28;;;22.50;99.90;;;;;;5050889;28;20426;-88
2023/06/29 08:37:35;;;;;;;39.10;33.22;;;22.60;99.90;;;;;;5050406;28;20518;-86
2023/06/29 08:40:03;;;;;;;41.03;35.08;;;22.40;99.90;;;;;;5050317;28;20747;-87
2023/06/29 08:42:29;;;;;;;41.00;35.80;;;22.30;99.90;;;;;;5067552;28;20410;-86
2023/06/29 08:44:54;;;;;;;39.28;34.38;;;22.20;99.90;;;;;;5067050;28;20933;-87
2023/06/29 08:47:22;;;;;;;37.20;32.80;;;22.10;99.90;;;;;;5067397;28;20409;-89
2023/06/29 08:49:50;;;;;;;37.08;33.08;;;22.40;99.90;;;;;;5050255;28;20939;-89
2023/06/29 08:52:18;;;;;;;39.88;34.67;;;22.00;99.90;;;;;;5067231;28;20410;-88
2023/06/29 08:54:44;;;;;;;36.85;32.85;;;22.10;99.90;;;;;;5050592;28;20441;-88
2023/06/29 08:57:10;;;;;;;39.00;34.23;;;22.00;99.90;;;;;;5067071;28;20409;-88
2023/06/29 08:59:40;;;;;;;39.63;34.20;;;21.90;99.90;;;;;;5067319;28;21206;-88
2023/06/29 09:02:06;;;;;;;39.17;34.85;;;22.00;99.90;;;;;;5050308;28;20402;-87
2023/06/29 09:04:32;;;;;;;41.00;35.90;;;22.10;99.90;;;;;;5050012;28;20481;-89
2023/06/29 09:06:57;;;;;;;36.53;32.50;;;21.90;99.90;;;;;;5050075;28;20835;-88
2023/06/29 09:09:24;;;;;;;38.43;34.10;;;21.60;99.90;;;;;;5067799;28;20893;-88
2023/06/29 09:11:50;;;;;;;36.37;32.37;;;21.80;99.90;;;;;;5050028;28;20736;-87
2023/06/29 09:14:16;;;;;;;36.30;32.33;;;21.70;99.90;;;;;;5067543;28;20476;-88
2023/06/29 09:16:58;;;;;;;39.50;34.17;;;21.90;99.90;;;;;;5060157;28;20935;-87
2023/06/29 09:19:25;;;;;;;40.83;36.22;;;21.70;99.90;;;;;;5063302;28;20423;-87
2023/06/29 09:21:51;;;;;;;39.90;35.38;;;21.90;99.90;;;;;;5047214;28;20752;-88
2023/06/29 09:24:18;;;;;;;37.25;33.25;;;21.60;99.90;;;;;;5046779;28;20400;-89
2023/06/29 09:26:48;;;;;;;37.40;33.50;;;21.60;99.90;;;;;;5046870;28;20426;-87
2023/06/29 09:29:14;;;;;;;37.47;33.58;;;21.60;99.90;;;;;;5064241;28;20445;-88
2023/06/29 09:31:39;;;;;;;38.55;33.42;;;21.50;99.90;;;;;;5031656;28;20396;-87
2023/06/29 09:34:22;;;;;;;33.13;29.70;;;21.60;99.90;;;;;;5046760;28;20525;-86
2023/06/29 09:36:48;;;;;;;35.63;31.77;;;21.50;99.90;;;;;;5046606;28;20404;-87
2023/06/29 09:39:15;;;;;;;34.67;31.08;;;21.90;99.90;;;;;;5030683;28;20487;-87
2023/06/29 09:41:51;;;;;;;37.22;33.40;;;21.50;99.90;;;;;;5030367;28;20403;-86
2023/06/29 09:44:22;;;;;;;37.90;33.85;;;21.50;99.90;;;;;;5034097;28;20475;-89
2023/06/29 09:47:14;;;;;;;38.38;33.88;;;21.40;99.90;;;;;;5034323;28;20403;-87
2023/06/29 09:49:44;;;;;;;40.10;35.90;;;21.40;99.90;;;;;;5031712;28;20955;-88
2023/06/29 09:52:10;;;;;;;39.05;34.97;;;21.30;99.90;;;;;;5034308;28;20889;-87
2023/06/29 09:54:36;;;;;;;37.78;33.60;;;21.30;99.90;;;;;;5033977;28;20438;-87
2023/06/29 09:57:03;;;;;;;41.30;35.80;;;21.10;99.90;;;;;;5085389;28;20447;-89
2023/06/29 09:59:33;;;;;;;39.95;35.45;;;21.20;99.90;;;;;;5053602;28;20452;-87
2023/06/29 10:01:59;;;;;;;40.53;36.17;;;21.50;99.90;;;;;;5047869;28;20414;-90
2023/06/29 10:04:25;;;;;;;43.33;37.88;;;21.40;99.90;;;;;;5051156;28;20526;-87
2023/06/29 10:07:00;;;;;;;40.00;35.80;;;21.40;99.90;;;;;;5052835;28;20481;-89
2023/06/29 10:09:26;;;;;;;41.97;37.43;;;21.30;99.90;;;;;;5053374;28;20460;-88
2023/06/29 10:11:54;;;;;;;41.53;36.92;;;21.40;99.90;;;;;;5069713;28;20518;-88
2023/06/29 10:14:21;;;;;;;40.38;35.97;;;21.60;99.90;;;;;;5069962;28;20453;-88
2023/06/29 10:16:55;;;;;;;40.70;36.25;;;21.50;99.90;;;;;;5052973;28;20887;-88
2023/06/29 10:19:24;;;;;;;39.58;35.47;;;21.60;99.90;;;;;;5066273;28;20407;-87
2023/06/29 10:21:57;;;;;;;42.47;36.70;;;21.70;99.90;;;;;;5066333;28;20412;-87
2023/06/29 10:24:28;;;;;;;39.45;34.75;;;21.90;99.90;;;;;;5067529;28;20413;-89
2023/06/29 10:26:55;;;;;;;39.40;35.10;;;22.30;99.90;;;;;;5053131;28;20991;-89
2023/06/29 10:29:20;;;;;;;39.85;35.58;;;22.20;99.90;;;;;;5052153;28;20425;-89
2023/06/29 10:31:54;;;;;;;40.50;36.30;;;22.30;99.90;;;;;;5053541;28;20766;-88
2023/06/29 10:34:20;;;;;;;38.17;34.17;;;22.70;99.90;;;;;;5069164;28;20425;-89
2023/06/29 10:36:49;;;;;;;39.85;35.65;;;22.50;99.90;;;;;;5052636;28;20743;-88
2023/06/29 10:39:37;;;;;;;38.63;34.55;;;22.50;99.90;;;;;;5049857;28;20900;-89
2023/06/29 10:42:12;;;;;;;38.90;34.67;;;22.30;99.90;;;;;;5064890;28;20912;-87
2023/06/29 10:44:38;;;;;;;39.75;35.65;;;22.30;99.90;;;;;;5064875;28;20867;-88
2023/06/29 10:47:04;;;;;;;39.13;34.97;;;22.20;99.90;;;;;;5048668;28;20404;-87
2023/06/29 10:49:30;;;;;;;40.57;36.33;;;22.20;99.90;;;;;;5048442;28;20426;-89
2023/06/29 10:52:05;;;;;;;39.55;35.35;;;22.30;99.90;;;;;;5068969;28;20913;-89
2023/06/29 10:54:31;;;;;;;41.22;36.75;;;22.30;99.90;;;;;;5051763;28;20422;-88
2023/06/29 10:56:58;;;;;;;39.75;35.58;;;22.40;99.90;;;;;;5068982;28;20413;-87
2023/06/29 10:59:23;;;;;;;41.45;36.75;;;22.40;99.90;;;;;;5064558;28;20403;-88
2023/06/29 11:01:50;;;;;;;41.28;36.88;;;22.60;99.90;;;;;;5064918;28;20410;-88
2023/06/29 11:04:17;;;;;;;41.67;37.13;;;22.60;99.90;;;;;;5064984;28;20400;-89
2023/06/29 11:06:42;;;;;;;42.58;37.65;;;22.60;99.90;;;;;;5048054;28;20396;-88
2023/06/29 11:09:15;;;;;;;42.67;38.23;;;22.60;99.90;;;;;;5048681;28;20411;-88
2023/06/29 11:11:43;;;;;;;41.07;36.70;;;22.60;99.90;;;;;;5048186;28;20408;-87
2023/06/29 11:14:16;;;;;;;43.42;38.58;;;22.60;99.90;;;;;;5047744;28;20453;-88
2023/06/29 11:16:42;;;;;;;41.33;37.00;;;22.70;99.90;;;;;;5048089;28;20407;-89
2023/06/29 11:19:08;;;;;;;42.20;37.60;;;22.80;99.90;;;;;;5048318;28;20461;-86
2023/06/29 11:21:34;;;;;;;42.65;38.17;;;23.20;99.90;;;;;;5048278;28;20439;-87
2023/06/29 11:24:00;;;;;;;45.13;40.25;;;23.20;99.90;;;;;;5064858;28;20493;-86
2023/06/29 11:26:29;;;;;;;42.22;37.70;;;23.30;99.90;;;;;;5064913;28;20523;-87
2023/06/29 11:28:55;;;;;;;41.85;37.35;;;23.30;99.90;;;;;;5049896;28;20447;-89
2023/06/29 11:31:20;;;;;;;44.13;39.33;;;23.20;99.90;;;;;;5047536;28;20412;-87
2023/06/29 11:33:50;;;;;;;40.07;35.77;;;23.20;99.90;;;;;;5049230;28;20428;-87
2023/06/29 11:36:30;;;;;;;41.40;36.90;;;23.10;99.90;;;;;;5051268;28;20441;-88
2023/06/29 11:39:03;;;;;;;41.05;36.78;;;23.00;99.90;;;;;;5067932;28;20762;-88
2023/06/29 11:41:33;;;;;;;40.03;35.22;;;23.10;99.90;;;;;;5067862;28;20399;-89
2023/06/29 11:44:00;;;;;;;40.70;36.30;;;23.30;99.90;;;;;;5051432;28;20463;-87
2023/06/29 11:46:26;;;;;;;41.73;36.97;;;23.30;99.90;;;;;;5067350;28;20402;-88
2023/06/29 11:48:56;;;;;;;39.75;35.38;;;23.40;99.90;;;;;;5049597;28;20424;-88
2023/06/29 11:51:25;;;;;;;38.97;34.88;;;23.30;99.90;;;;;;5067054;28;20406;-88
2023/06/29 11:53:53;;;;;;;39.38;35.28;;;23.30;99.90;;;;;;5067548;28;20457;-88
2023/06/29 11:56:26;;;;;;;41.60;37.00;;;23.20;99.90;;;;;;5067306;28;20479;-88
2023/06/29 11:58:52;;;;;;;40.88;36.00;;;23.20;99.90;;;;;;5050255;28;20394;-86
2023/06/29 12:01:18;;;;;;;41.80;37.33;;;23.20;99.90;;;;;;5067731;28;20397;-88
2023/06/29 12:03:46;;;;;;;40.60;36.10;;;23.40;99.90;;;;;;5050297;28;20413;-87
2023/06/29 12:06:12;;;;;;;42.60;37.95;;;24.00;99.90;;;;;;5063306;28;20392;-88
2023/06/29 12:08:38;;;;;;;42.50;37.88;;;24.40;99.90;;;;;;5063510;28;20499;-89
2023/06/29 12:11:04;;;;;;;41.67;37.30;;;24.70;99.90;;;;;;5049814;28;20439;-89
2023/06/29 12:13:30;;;;;;;41.97;37.42;;;24.50;99.90;;;;;;5050210;28;20425;-87
2023/06/29 12:16:01;;;;;;;42.73;38.00;;;24.30;99.90;;;;;;5066598;28;20829;-87
2023/06/29 12:18:28;;;;;;;38.63;34.10;;;24.20;99.90;;;;;;5051079;28;20735;-86
2023/06/29 12:20:54;;;;;;;35.67;31.73;;;24.20;99.90;;;;;;5066707;28;20474;-89
2023/06/29 12:23:21;;;;;;;33.70;29.00;;;24.10;99.90;;;;;;5050709;28;20496;-88
2023/06/29 12:25:49;;;;;;;32.33;28.88;;;24.30;99.90;;;;;;5065839;28;20394;-89
2023/06/29 12:28:16;;;;;;;35.03;31.35;;;24.30;99.90;;;;;;5067201;28;20910;-89